Time;durP1;ratioP1;P1;durP2;ratioP2;P2;SDS_P1;SDS_P2;PMS_P1;PMS_P2;Temp;Humidity;BMP_temperature;BMP_pressure;BME280_temperature;BME280_humidity;BME280_pressure;Samples;Min_cycle;Max_cycle;Signal;HPM_P1;HPM_P2
2023/11/02 00:01:06;;;;;;;8.25;6.22;;;;;;;11.93;68.13;99167.22;4981013;28;20030;-92
2023/11/02 00:03:32;;;;;;;8.65;5.95;;;;;;;11.81;67.84;99140.59;4982135;28;20057;-93
2023/11/02 00:06:00;;;;;;;7.05;5.95;;;;;;;12.01;67.50;99155.00;4964958;28;20037;-92
2023/11/02 00:08:35;;;;;;;9.40;5.93;;;;;;;11.93;67.45;99140.22;4981824;28;20030;-91
2023/11/02 00:11:07;;;;;;;10.05;5.82;;;;;;;11.96;67.35;99142.38;4965151;28;20104;-92
2023/11/02 00:13:32;;;;;;;;;;;;;;;12.07;67.56;99161.97;4964670;28;20039;-92
2023/11/02 00:16:07;;;;;;;10.73;6.43;;;;;;;11.91;67.49;99134.31;4965193;28;19914;-92
2023/11/02 00:18:40;;;;;;;8.32;6.30;;;;;;;11.84;68.04;99131.91;4966891;28;20062;-93
2023/11/02 00:21:09;;;;;;;10.05;6.03;;;;;;;11.83;67.99;99137.59;4965365;28;20026;-92
2023/11/02 00:23:49;;;;;;;;;;;;;;;;;;;;;
2023/11/02 00:26:17;;;;;;;7.30;6.07;;;;;;;11.56;68.25;99116.50;4983368;28;20029;-91
2023/11/02 00:28:44;;;;;;;14.07;6.57;;;;;;;11.70;68.21;99137.19;4980376;28;20086;-93
2023/11/02 00:31:16;;;;;;;9.50;6.53;;;;;;;11.62;67.89;99118.06;4964300;28;20041;-92
2023/11/02 00:33:52;;;;;;;;;;;;;;;;;;;;;
2023/11/02 00:36:26;;;;;;;11.25;5.97;;;;;;;11.66;68.09;99108.31;4983018;28;20404;-91
2023/11/02 00:38:58;;;;;;;8.23;6.25;;;;;;;11.66;68.26;99119.94;4980438;28;20061;-92
2023/11/02 00:41:33;;;;;;;;;;;;;;;;;;;;;
2023/11/02 00:44:04;;;;;;;9.88;6.53;;;;;;;11.61;67.90;99111.88;4996378;28;20026;-91
2023/11/02 00:46:30;;;;;;;9.55;6.50;;;;;;;11.73;67.83;99139.28;4980921;28;20027;-92
2023/11/02 00:48:55;;;;;;;10.90;6.20;;;;;;;11.63;68.02;99111.59;4980604;28;20041;-93
2023/11/02 00:51:30;;;;;;;8.30;5.88;;;;;;;11.68;67.49;99104.28;4964706;28;20475;-93
2023/11/02 00:54:00;;;;;;;9.70;6.07;;;;;;;11.86;67.67;99134.34;4980443;28;20030;-91
2023/11/02 00:56:32;;;;;;;10.02;6.05;;;;;;;11.57;68.01;99094.66;4979526;28;20476;-93
2023/11/02 00:58:59;;;;;;;9.38;5.72;;;;;;;11.61;67.62;99092.19;4980736;28;20484;-92
2023/11/02 01:01:26;;;;;;;11.40;6.07;;;;;;;11.73;67.52;99100.72;4964489;28;20049;-93
2023/11/02 01:03:56;;;;;;;9.48;6.03;;;;;;;11.88;67.21;99122.19;4980164;28;20026;-92
2023/11/02 01:06:29;;;;;;;10.75;5.38;;;;;;;11.73;67.69;99085.34;4963792;28;20034;-92
2023/11/02 01:08:59;;;;;;;13.00;5.78;;;;;;;11.72;67.63;99096.41;4978914;28;20031;-92
2023/11/02 01:11:30;;;;;;;7.03;5.65;;;;;;;11.72;67.74;99093.72;4963624;28;20053;-92
2023/11/02 01:14:00;;;;;;;8.32;5.20;;;;;;;11.58;67.86;99079.28;4964147;28;20026;-92
2023/11/02 01:16:40;;;;;;;7.22;5.53;;;;;;;11.53;67.58;99077.41;4995442;28;20023;-93
2023/11/02 01:19:07;;;;;;;7.22;5.68;;;;;;;11.57;68.16;99078.47;4995264;28;20082;-93
2023/11/02 01:21:41;;;;;;;7.30;5.47;;;;;;;11.68;67.89;99089.97;4963067;28;20030;-91
2023/11/02 01:24:09;;;;;;;10.13;5.65;;;;;;;11.80;67.77;99095.81;4964051;28;20023;-92
2023/11/02 01:26:42;;;;;;;7.38;5.63;;;;;;;11.80;67.80;99087.72;4963575;28;20080;-93
2023/11/02 01:29:08;;;;;;;8.20;5.85;;;;;;;11.66;67.77;99057.91;4979643;28;20026;-92
2023/11/02 01:31:43;;;;;;;7.63;5.40;;;;;;;11.73;67.51;99062.97;4996339;28;20061;-92
2023/11/02 01:34:14;;;;;;;8.40;5.35;;;;;;;11.77;67.75;99064.03;4980109;28;20509;-91
2023/11/02 01:36:44;;;;;;;11.63;5.65;;;;;;;11.71;67.87;99038.97;4964044;28;20029;-92
2023/11/02 01:39:12;;;;;;;9.95;6.18;;;;;;;11.91;68.20;99075.78;4964014;28;20030;-92
2023/11/02 01:41:47;;;;;;;11.13;5.20;;;;;;;11.80;67.58;99041.06;4980131;28;20046;-93
2023/11/02 01:44:22;;;;;;;7.18;5.25;;;;;;;11.89;67.32;99045.59;4963707;28;20036;-94
2023/11/02 01:47:18;;;;;;;8.25;5.82;;;;;;;12.04;66.89;99050.03;4979103;28;20022;-94
2023/11/02 01:49:53;;;;;;;7.07;5.78;;;;;;;12.05;66.71;99037.31;4972878;28;20038;-92
2023/11/02 01:52:31;;;;;;;8.30;5.82;;;;;;;12.24;66.51;99056.28;4981190;28;20042;-94
2023/11/02 01:55:08;;;;;;;8.45;5.55;;;;;;;12.35;66.33;99049.69;4980398;28;20113;-93
2023/11/02 02:01:50;;;;;;;;;;;;;;;;;;;;;
2023/11/02 02:04:21;;;;;;;7.93;5.90;;;;;;;12.32;66.52;99050.25;4969689;28;20094;-92
2023/11/02 02:07:32;;;;;;;8.02;5.70;;;;;;;12.32;66.30;99055.66;4980058;28;20113;-92
2023/11/02 02:10:07;;;;;;;8.77;6.13;;;;;;;11.93;67.35;99030.44;4989403;28;20448;-92
2023/11/02 02:12:36;;;;;;;10.13;6.20;;;;;;;12.04;67.66;99068.13;4963198;28;20029;-92
2023/11/02 02:15:13;;;;;;;8.93;6.20;;;;;;;11.88;68.23;99038.56;4978799;28;20022;-93
2023/11/02 02:18:13;;;;;;;8.63;6.32;;;;;;;11.79;67.77;99013.28;4979535;28;20019;-93
2023/11/02 02:20:40;;;;;;;10.02;5.85;;;;;;;11.81;67.95;99019.19;4964954;28;20022;-93
2023/11/02 02:23:56;;;;;;;;;;;;;;;;;;;;;
2023/11/02 02:26:41;;;;;;;10.20;6.60;;;;;;;11.87;68.07;99038.81;4995313;28;20030;-93
2023/11/02 02:29:35;;;;;;;9.43;6.18;;;;;;;11.83;68.13;99041.31;4978719;28;20030;-92
2023/11/02 02:32:12;;;;;;;;;;;;;;;;;;;;;
2023/11/02 02:34:54;;;;;;;9.20;6.57;;;;;;;11.72;68.25;99019.03;4993719;28;20026;-92
2023/11/02 02:37:43;;;;;;;7.57;5.88;;;;;;;11.66;68.44;99008.53;4977015;28;20026;-92
2023/11/02 02:40:16;;;;;;;9.23;6.53;;;;;;;11.49;68.83;98990.91;4992858;28;20058;-92
2023/11/02 02:42:44;;;;;;;9.68;5.90;;;;;;;11.47;68.53;98974.19;4960472;28;20058;-93
2023/11/02 02:45:12;;;;;;;9.55;5.88;;;;;;;11.68;68.22;98996.41;4961272;28;20034;-92
2023/11/02 02:47:40;;;;;;;8.00;5.95;;;;;;;11.64;67.99;98986.44;4962096;28;20038;-94
2023/11/02 02:50:10;;;;;;;9.35;6.57;;;;;;;11.68;67.73;98980.22;4961168;28;20432;-93
2023/11/02 02:52:37;;;;;;;10.38;6.95;;;;;;;11.86;67.57;98984.06;4962163;28;20054;-94
2023/11/02 02:55:03;;;;;;;12.00;7.32;;;;;;;11.77;67.68;98961.53;4961624;28;20125;-93
2023/11/02 02:57:33;;;;;;;9.85;6.82;;;;;;;11.95;67.49;98984.25;4952974;28;20014;-94
2023/11/02 03:00:00;;;;;;;10.45;6.75;;;;;;;11.76;67.45;98959.09;4962814;28;20042;-92
2023/11/02 03:02:29;;;;;;;10.73;7.10;;;;;;;11.84;67.48;98964.66;4962201;28;20026;-93
2023/11/02 03:04:55;;;;;;;10.93;7.50;;;;;;;11.83;67.89;98959.53;4962466;28;20041;-92
2023/11/02 03:07:25;;;;;;;13.30;7.50;;;;;;;11.83;68.29;98960.38;4962434;28;20037;-93
2023/11/02 03:09:52;;;;;;;14.82;8.25;;;;;;;11.76;68.29;98954.50;4962423;28;20034;-93
2023/11/02 03:12:25;;;;;;;11.65;7.68;;;;;;;11.83;68.08;98962.25;4978942;28;20495;-92
2023/11/02 03:14:51;;;;;;;16.33;7.50;;;;;;;11.87;68.04;98960.59;4982243;28;20494;-94
2023/11/02 03:17:40;;;;;;;12.35;8.25;;;;;;;11.98;68.37;98972.13;4966099;28;20026;-91
2023/11/02 03:20:14;;;;;;;11.95;7.82;;;;;;;11.72;68.44;98929.19;4982060;28;20034;-93
2023/11/02 03:22:50;;;;;;;14.90;8.43;;;;;;;11.81;68.32;98930.19;4966691;28;20030;-92
2023/11/02 03:25:40;;;;;;;11.85;8.02;;;;;;;11.86;68.18;98942.81;4967433;28;20030;-93
2023/11/02 03:28:21;;;;;;;12.85;7.90;;;;;;;11.78;68.40;98933.44;4981969;28;20035;-92
2023/11/02 03:31:02;;;;;;;13.52;9.23;;;;;;;11.72;68.58;98927.31;4982453;28;20480;-93
2023/11/02 03:33:44;;;;;;;14.05;7.95;;;;;;;11.59;68.61;98902.94;4982074;28;20397;-92
2023/11/02 03:36:28;;;;;;;14.57;8.10;;;;;;;11.65;69.32;98934.13;4982249;28;20034;-92
2023/11/02 03:39:09;;;;;;;10.43;7.63;;;;;;;11.67;69.12;98926.56;4981903;28;20775;-93
2023/11/02 03:42:03;;;;;;;11.10;8.00;;;;;;;11.69;68.69;98927.09;4981731;28;20058;-93
2023/11/02 03:44:37;;;;;;;13.13;7.40;;;;;;;11.71;68.52;98914.91;4981509;28;20022;-92
2023/11/02 03:47:08;;;;;;;10.80;7.60;;;;;;;11.71;68.74;98909.53;4981496;28;20440;-93
2023/11/02 03:49:45;;;;;;;10.15;7.45;;;;;;;11.45;68.83;98863.16;4980667;28;20105;-93
2023/11/02 03:52:26;;;;;;;13.52;7.63;;;;;;;11.59;68.50;98879.44;4965048;28;20026;-92
2023/11/02 03:55:16;;;;;;;11.00;7.68;;;;;;;11.80;68.45;98900.78;4997267;28;20026;-92
2023/11/02 03:58:34;;;;;;;13.38;8.40;;;;;;;11.65;68.39;98877.50;4980822;28;20034;-91
2023/11/02 04:01:11;;;;;;;16.40;8.40;;;;;;;11.78;68.08;98876.00;4957698;28;20117;-93
2023/11/02 04:03:43;;;;;;;14.25;8.27;;;;;;;11.81;68.02;98872.75;4981568;28;20022;-93
2023/11/02 04:06:14;;;;;;;11.20;7.82;;;;;;;11.85;68.11;98863.78;4981727;28;20081;-92
2023/11/02 04:08:40;;;;;;;16.50;9.13;;;;;;;11.92;67.77;98863.44;4981417;28;20157;-92
2023/11/02 04:11:13;;;;;;;10.65;8.27;;;;;;;11.98;67.96;98885.78;4997189;28;20054;-91
2023/11/02 04:13:44;;;;;;;10.73;8.35;;;;;;;11.88;67.53;98843.50;4965359;28;20019;-94
2023/11/02 04:16:27;;;;;;;;;;;;;;;;;;;;;
2023/11/02 04:18:53;;;;;;;11.40;7.30;;;;;;;12.18;66.78;98876.59;4998636;28;20030;-95
2023/11/02 04:21:20;;;;;;;10.98;7.50;;;;;;;12.03;66.61;98853.31;4966538;28;20415;-95
2023/11/02 04:23:56;;;;;;;10.98;7.68;;;;;;;12.07;66.38;98836.25;4966787;28;20385;-94
2023/11/02 04:26:21;;;;;;;9.57;6.88;;;;;;;12.13;66.61;98837.00;4967677;28;20027;-94
2023/11/02 04:28:52;;;;;;;9.77;7.20;;;;;;;12.25;66.44;98847.34;4968229;28;20122;-95
2023/11/02 04:31:21;;;;;;;14.63;7.18;;;;;;;12.14;66.31;98830.50;4983278;28;20039;-94
2023/11/02 04:33:54;;;;;;;9.75;7.15;;;;;;;12.43;65.94;98862.75;4983134;28;20489;-95
2023/11/02 04:36:21;;;;;;;10.65;7.30;;;;;;;12.33;65.92;98836.69;4981846;28;20030;-95
2023/11/02 04:38:49;;;;;;;13.50;7.50;;;;;;;12.28;66.74;98846.75;4982618;28;20400;-95
2023/11/02 04:41:14;;;;;;;11.38;7.50;;;;;;;12.30;67.42;98858.06;4983430;28;20062;-93
2023/11/02 04:43:40;;;;;;;14.07;7.53;;;;;;;12.07;67.47;98846.25;4964444;28;20031;-94
2023/11/02 04:46:06;;;;;;;11.10;7.40;;;;;;;12.07;67.42;98828.16;4979921;28;20066;-94
2023/11/02 04:48:31;;;;;;;11.55;8.07;;;;;;;12.13;67.33;98853.19;4963430;28;20088;-94
2023/11/02 04:50:59;;;;;;;16.40;8.30;;;;;;;12.16;67.53;98859.88;4962556;28;20011;-93
2023/11/02 04:53:25;;;;;;;16.13;7.90;;;;;;;11.91;68.21;98838.38;4963564;28;20113;-96
2023/11/02 04:55:53;;;;;;;12.35;7.15;;;;;;;11.88;68.74;98851.59;4964511;28;20065;-94
2023/11/02 04:58:22;;;;;;;10.98;7.18;;;;;;;11.81;68.40;98854.66;4985548;28;20089;-95
2023/11/02 05:00:50;;;;;;;11.02;7.03;;;;;;;11.75;68.72;98858.50;4964194;28;20042;-95
2023/11/02 05:03:25;;;;;;;13.07;7.63;;;;;;;11.72;68.61;98857.19;4968516;28;20027;-94
2023/11/02 05:05:50;;;;;;;18.40;8.38;;;;;;;11.64;69.10;98855.13;4968094;28;20113;-96
2023/11/02 05:08:26;;;;;;;;;;;;;;;;;;;;;
2023/11/02 05:10:58;;;;;;;193.40;109.38;;;;;;;11.46;70.07;98864.78;4979326;28;20091;-92
2023/11/02 05:13:30;;;;;;;23.10;13.23;;;;;;;11.61;69.75;98898.84;4983238;28;20105;-94
2023/11/02 05:16:05;;;;;;;27.92;11.55;;;;;;;11.50;69.48;98873.09;4961414;28;20018;-93
2023/11/02 05:18:31;;;;;;;18.00;9.80;;;;;;;11.45;69.70;98873.94;4963261;28;20141;-93
2023/11/02 05:20:59;;;;;;;21.35;10.80;;;;;;;11.50;69.64;98897.38;4977299;28;20106;-92
2023/11/02 05:23:30;;;;;;;18.25;9.45;;;;;;;11.37;70.03;98893.47;4973951;28;20113;-94
2023/11/02 05:26:03;;;;;;;17.00;10.70;;;;;;;11.45;70.20;98905.50;4994674;28;20106;-94
2023/11/02 05:28:34;;;;;;;25.13;12.85;;;;;;;11.17;70.08;98862.13;5000416;28;20038;-93
2023/11/02 05:31:05;;;;;;;22.95;11.90;;;;;;;11.23;70.15;98882.53;4976847;28;20036;-92
2023/11/02 05:33:33;;;;;;;25.60;12.20;;;;;;;10.96;70.63;98860.69;4992474;28;20118;-93
2023/11/02 05:36:06;;;;;;;28.17;12.95;;;;;;;11.03;70.90;98880.03;4977229;28;20039;-93
2023/11/02 05:38:37;;;;;;;24.35;14.10;;;;;;;11.10;70.96;98897.47;4962072;28;20041;-94
2023/11/02 05:41:25;;;;;;;;;;;;;;;;;;;;;
2023/11/02 05:43:54;;;;;;;20.33;12.25;;;;;;;11.17;70.15;98870.19;4985280;28;20101;-96
2023/11/02 05:47:03;;;;;;;22.13;12.15;;;;;;;11.26;70.20;98876.56;4955681;28;20118;-95
2023/11/02 05:49:37;;;;;;;18.33;11.40;;;;;;;11.32;70.13;98864.63;4976299;28;20471;-94
2023/11/02 05:52:06;;;;;;;17.15;10.85;;;;;;;11.37;69.85;98879.16;4973902;28;20035;-95
2023/11/02 05:54:43;;;;;;;;;;;;;;;;;;;;;
2023/11/02 05:57:19;;;;;;;;;;;;;;;;;;;;;
2023/11/02 05:59:48;;;;;;;19.60;10.07;;;;;;;11.61;68.98;98879.19;4985442;28;20440;-95
2023/11/02 06:02:33;;;;;;;;;;;;;;;;;;;;;
2023/11/02 06:05:09;;;;;;;14.90;9.40;;;;;;;11.65;69.00;98891.78;4989361;28;20444;-94
2023/11/02 06:07:35;;;;;;;18.48;10.90;;;;;;;11.62;68.61;98860.03;4969886;28;20073;-94
2023/11/02 06:10:15;;;;;;;17.10;11.15;;;;;;;11.59;68.59;98854.38;4967652;28;20022;-94
2023/11/02 06:13:33;;;;;;;19.17;12.48;;;;;;;11.66;68.53;98860.22;4974639;28;20010;-96
2023/11/02 06:16:27;;;;;;;;;;;;;;;;;;;;;
2023/11/02 06:19:00;;;;;;;19.83;10.98;;;;;;;11.66;69.31;98861.03;5003187;28;20058;-93
2023/11/02 06:21:28;;;;;;;20.30;12.20;;;;;;;11.73;69.49;98874.97;4967004;28;20432;-93
2023/11/02 06:24:04;;;;;;;18.55;10.32;;;;;;;11.91;69.44;98889.63;4964781;28;20026;-94
2023/11/02 06:26:29;;;;;;;16.10;10.02;;;;;;;11.91;69.80;98888.81;4964894;28;20094;-93
2023/11/02 06:29:01;;;;;;;22.42;11.18;;;;;;;11.87;69.19;98867.00;4950114;28;20053;-92
2023/11/02 06:31:26;;;;;;;21.20;10.63;;;;;;;12.03;68.98;98864.91;4950037;28;20026;-92
2023/11/02 06:34:23;;;;;;;23.65;12.38;;;;;;;12.20;68.95;98887.91;4946236;28;20069;-91
2023/11/02 06:47:41;;;;;;;22.48;11.40;;;;;;;12.60;67.11;98859.50;4948505;28;20089;-90
2023/11/02 06:50:07;;;;;;;16.20;10.18;;;;;;;12.63;66.39;98850.00;4942934;28;20030;-90
2023/11/02 06:52:33;;;;;;;22.58;13.30;;;;;;;12.76;65.66;98845.75;4963658;28;20058;-92
2023/11/02 06:54:58;;;;;;;17.92;9.77;;;;;;;12.84;65.69;98848.56;4939210;28;20054;-94
2023/11/02 06:57:24;;;;;;;17.00;9.65;;;;;;;13.02;64.85;98848.81;4980080;28;20026;-90
2023/11/02 06:59:49;;;;;;;13.75;8.38;;;;;;;13.26;64.47;98864.88;4951387;28;20027;-91
2023/11/02 07:02:18;;;;;;;15.35;10.60;;;;;;;13.43;64.83;98869.75;4935032;28;20026;-93
2023/11/02 07:04:44;;;;;;;19.27;9.27;;;;;;;13.44;64.67;98864.00;4945187;28;20057;-89
2023/11/02 07:07:09;;;;;;;21.67;8.80;;;;;;;13.46;64.44;98839.38;4945045;28;20042;-92
2023/11/02 07:09:35;;;;;;;21.70;9.98;;;;;;;13.70;64.32;98856.22;4931672;28;20035;-90
2023/11/02 07:12:05;;;;;;;18.83;10.82;;;;;;;13.71;63.43;98840.78;4949078;28;20011;-92
2023/11/02 07:14:44;;;;;;;;;;;;;;;;;;;;;
2023/11/02 07:17:38;;;;;;;;;;;;;;;;;;;;;
2023/11/02 07:20:04;;;;;;;32.05;19.98;;;;;;;14.13;63.27;98863.97;4961199;28;20528;-91
2023/11/02 07:22:30;;;;;;;28.73;15.05;;;;;;;14.13;62.30;98855.84;4961832;28;20041;-92
2023/11/02 07:24:56;;;;;;;17.92;13.30;;;;;;;14.33;61.97;98854.56;4950927;28;20031;-91
2023/11/02 07:27:59;;;;;;;21.88;11.93;;;;;;;14.40;61.50;98858.78;4945627;28;20034;-94
2023/11/02 07:30:27;;;;;;;14.43;8.48;;;;;;;14.30;61.33;98830.81;4882396;29;20068;-91
2023/11/02 07:33:03;;;;;;;21.83;13.10;;;;;;;14.62;61.33;98858.81;4930518;28;20031;-94
2023/11/02 07:35:31;;;;;;;19.50;8.75;;;;;;;14.60;61.35;98838.56;4946829;28;20050;-92
2023/11/02 07:38:27;;;;;;;14.23;8.30;;;;;;;14.73;60.99;98834.97;4946251;28;20057;-95
2023/11/02 07:40:53;;;;;;;23.48;12.10;;;;;;;14.83;60.78;98831.22;4977924;28;20433;-93
2023/11/02 07:43:59;;;;;;;15.07;8.40;;;;;;;15.17;60.34;98855.03;4962636;28;20030;-90
2023/11/02 07:57:24;;;;;;;14.35;8.20;;;;;;;15.80;58.91;98854.97;4927879;28;20114;-95
2023/11/02 08:00:28;;;;;;;;;;;;;;;;;;;;;
2023/11/02 08:09:05;;;;;;;9.15;5.00;;;;;;;16.23;54.15;98818.91;4996717;28;20082;-96
2023/11/02 08:15:26;;;;;;;11.70;4.85;;;;;;;16.38;52.36;98842.88;4950660;29;20034;-92
2023/11/02 08:18:18;;;;;;;6.53;3.95;;;;;;;16.27;51.16;98825.28;4900970;29;20040;-95
2023/11/02 08:21:36;;;;;;;;;;;;;;;;;;;;;
2023/11/02 08:24:21;;;;;;;9.00;3.28;;;;;;;16.13;51.02;98823.53;4923635;29;20067;-93
2023/11/02 08:27:17;;;;;;;;;;;;;;;;;;;;;
2023/11/02 08:29:50;;;;;;;6.07;3.92;;;;;;;15.90;50.68;98849.25;4915462;29;20550;-96
2023/11/02 08:39:17;;;;;;;;;;;;;;;;;;;;;
2023/11/02 08:41:43;;;;;;;4.75;3.35;;;;;;;15.50;52.43;98825.63;4964147;28;20033;-91
2023/11/02 08:44:11;;;;;;;8.23;4.80;;;;;;;15.63;52.24;98836.69;4931045;28;20031;-92
2023/11/02 08:47:10;;;;;;;9.15;3.88;;;;;;;15.80;51.94;98838.69;4947765;28;20030;-91
2023/11/02 08:49:45;;;;;;;5.57;3.80;;;;;;;15.99;51.83;98846.53;4958143;28;20046;-93
2023/11/02 08:52:33;;;;;;;5.40;3.60;;;;;;;16.13;51.78;98841.75;4929057;28;20035;-93
2023/11/02 08:55:00;;;;;;;7.45;4.03;;;;;;;16.36;50.99;98847.84;4962125;28;20026;-92
2023/11/02 08:57:29;;;;;;;4.82;3.88;;;;;;;16.39;50.96;98833.59;4945010;28;20025;-93
2023/11/02 08:59:58;;;;;;;7.63;4.05;;;;;;;16.61;51.22;98848.16;4967495;28;20018;-94
2023/11/02 09:02:33;;;;;;;6.18;3.53;;;;;;;16.76;50.57;98850.38;4968767;28;20476;-96
2023/11/02 09:14:17;;;;;;;6.22;3.40;;;;;;;17.19;49.18;98826.94;5158079;23;20046;-94
2023/11/02 09:16:45;;;;;;;9.27;3.78;;;;;;;17.44;48.93;98838.84;4954167;28;20505;-95
2023/11/02 09:19:51;;;;;;;;;;;;;;;;;;;;;
2023/11/02 09:22:42;;;;;;;8.90;3.92;;;;;;;17.66;47.81;98810.53;4907802;29;20119;-93
2023/11/02 09:25:43;;;;;;;5.50;3.70;;;;;;;17.70;46.93;98801.41;4941687;29;20067;-94
2023/11/02 09:28:45;;;;;;;;;;;;;;;;;;;;;
2023/11/02 09:41:26;;;;;;;;;;;;;;;;;;;;;
2023/11/02 09:43:56;;;;;;;4.38;2.80;;;;;;;17.98;44.86;98760.84;4935591;28;20159;-96
2023/11/02 09:47:09;;;;;;;7.30;3.80;;;;;;;18.41;45.28;98793.50;4973280;28;20021;-96
2023/11/02 09:49:22;;;;;;;3.97;2.72;;;;;;;18.15;44.03;98780.91;4993306;28;20040;-96
2023/11/02 09:52:00;;;;;;;5.15;2.90;;;;;;;17.94;44.50;98765.38;4979970;28;20093;-95
2023/11/02 09:59:44;;;;;;;;;;;;;;;;;;;;;
2023/11/02 10:26:20;;;;;;;6.70;3.60;;;;;;;18.32;43.09;98741.81;4943168;28;20050;-94
2023/11/02 10:28:46;;;;;;;8.20;3.42;;;;;;;18.02;43.54;98713.88;4944734;28;20134;-87
2023/11/02 10:31:20;;;;;;;4.18;2.65;;;;;;;18.09;43.35;98712.19;4963506;28;20592;-89
2023/11/02 10:34:31;;;;;;;7.07;4.20;;;;;;;18.32;43.35;98731.72;4967773;28;20489;-91
2023/11/02 10:37:09;;;;;;;;;;;;;;;;;;;;;
2023/11/02 10:40:10;;;;;;;5.05;2.67;;;;;;;18.11;43.58;98723.56;4978837;28;20109;-93
2023/11/02 10:43:13;;;;;;;;;;;;;;;;;;;;;
2023/11/02 10:46:30;;;;;;;;;;;;;;;;;;;;;
2023/11/02 10:55:01;;;;;;;;;;;;;;;;;;;;;
2023/11/02 10:57:39;;;;;;;4.63;2.78;;;;;;;17.87;43.57;98697.03;4938909;29;19914;-91
2023/11/02 11:00:09;;;;;;;9.35;6.35;;;;;;;18.01;43.92;98699.44;4942139;29;20027;-94
2023/11/02 11:02:41;;;;;;;6.53;2.53;;;;;;;18.03;43.73;98693.66;4937869;29;20134;-95
2023/11/02 11:05:39;;;;;;;3.40;2.20;;;;;;;18.06;43.27;98674.72;4923025;29;20035;-93
2023/11/02 11:18:44;;;;;;;5.82;3.00;;;;;;;18.27;43.45;98658.31;4963204;28;20080;-94
2023/11/02 11:21:15;;;;;;;6.50;4.18;;;;;;;18.44;43.38;98684.59;4990714;28;20141;-93
2023/11/02 11:23:59;;;;;;;;;;;;;;;;;;;;;
2023/11/02 11:27:14;;;;;;;;;;;;;;;;;;;;;
2023/11/02 12:06:45;;;;;;;7.72;2.42;;;;;;;18.34;41.76;98631.34;5011069;28;20098;-95
2023/11/02 12:18:25;;;;;;;4.78;2.47;;;;;;;18.44;41.19;98619.16;5232254;23;20028;-93
2023/11/02 12:20:56;;;;;;;3.65;2.30;;;;;;;18.53;41.51;98635.41;4968329;28;20571;-93
2023/11/02 12:26:28;;;;;;;5.80;2.83;;;;;;;18.53;41.38;98654.50;4914525;29;20049;-94
2023/11/02 12:29:05;;;;;;;8.27;3.17;;;;;;;18.43;41.65;98653.03;4939386;28;20061;-94
2023/11/02 12:32:17;;;;;;;5.25;2.92;;;;;;;18.48;41.85;98647.34;4947825;28;20114;-95
2023/11/02 12:35:20;;;;;;;;;;;;;;;;;;;;;
2023/11/02 12:38:17;;;;;;;;;;;;;;;;;;;;;
2023/11/02 12:59:49;;;;;;;;;;;;;;;;;;;;;
2023/11/02 13:05:50;;;;;;;5.50;3.53;;;;;;;18.84;40.45;98666.84;6138752;23;20017;31
2023/11/02 13:08:52;;;;;;;;;;;;;;;;;;;;;
2023/11/02 13:12:10;;;;;;;;;;;;;;;18.91;40.12;98648.78;4957439;28;20212;-96
2023/11/02 13:25:18;;;;;;;11.05;5.97;;;;;;;18.70;41.12;98632.50;4975835;28;20389;-95
2023/11/02 13:27:57;;;;;;;;;;;;;;;;;;;;;
2023/11/02 13:30:40;;;;;;;;;;;;;;;;;;;;;
2023/11/02 13:33:28;;;;;;;;;;;;;;;;;;;;;
2023/11/02 13:39:57;;;;;;;;;;;;;;;;;;;;;
2023/11/02 13:43:13;;;;;;;;;;;;;;;;;;;;;
2023/11/02 13:46:05;;;;;;;3.78;2.70;;;;;;;18.45;41.52;98639.03;4834713;29;20089;-96
2023/11/02 13:48:34;;;;;;;6.35;3.28;;;;;;;18.33;41.51;98635.19;4849892;29;20423;-95
2023/11/02 13:54:47;;;;;;;;;;;;;;;;;;;;;
2023/11/02 13:57:53;;;;;;;9.07;2.80;;;;;;;18.19;41.96;98651.03;4913821;29;20092;-92
2023/11/02 14:00:47;;;;;;;6.97;2.83;;;;;;;18.18;41.81;98654.91;4816295;29;20041;-93
2023/11/02 14:04:00;;;;;;;;;;;;;;;;;;;;;
2023/11/02 14:07:11;;;;;;;6.03;3.95;;;;;;;17.58;42.53;98608.81;4772817;29;20153;-96
2023/11/02 14:10:09;;;;;;;10.68;4.38;;;;;;;17.43;43.06;98623.03;4758463;30;20107;-92
2023/11/02 14:13:01;;;;;;;8.35;3.28;;;;;;;17.52;43.24;98642.03;4769454;30;20102;-96
2023/11/02 14:15:40;;;;;;;4.65;2.90;;;;;;;17.38;43.54;98631.41;4763589;30;20069;-94
2023/11/02 14:18:45;;;;;;;5.70;3.08;;;;;;;17.41;43.41;98611.69;4789256;29;20503;-96
2023/11/02 14:21:41;;;;;;;;;;;;;;;;;;;;;
2023/11/02 14:24:35;;;;;;;;;;;;;;;;;;;;;
2023/11/02 14:27:30;;;;;;;4.93;2.85;;;;;;;17.38;43.61;98645.78;4829038;29;20682;-96
2023/11/02 14:30:28;;;;;;;4.90;3.22;;;;;;;17.35;43.24;98642.97;4834330;29;20066;-94
2023/11/02 14:33:16;;;;;;;;;;;;;;;;;;;;;
2023/11/02 14:35:44;;;;;;;6.82;3.22;;;;;;;17.22;44.30;98679.34;4814840;29;20133;-94
2023/11/02 14:38:33;;;;;;;;;;;;;;;;;;;;;
2023/11/02 14:41:22;;;;;;;;;;;;;;;;;;;;;
2023/11/02 14:47:50;;;;;;;;;;;;;;;;;;;;;
2023/11/02 14:50:46;;;;;;;6.90;3.90;;;;;;;16.99;44.38;98657.09;4892980;29;20067;-96
2023/11/02 14:53:15;;;;;;;7.05;3.08;;;;;;;17.08;44.40;98682.31;4916706;29;20306;-95
2023/11/02 15:09:58;;;;;;;8.75;3.22;;;;;;;16.68;44.57;98656.25;4894710;29;20166;-96
2023/11/02 15:12:39;;;;;;;6.43;3.22;;;;;;;16.75;44.61;98672.06;4871943;29;20036;-94
2023/11/02 15:26:20;;;;;;;9.63;3.88;;;;;;;16.55;45.41;98649.91;4859628;26;20054;-91
2023/11/02 15:28:48;;;;;;;29.90;23.55;;;;;;;16.51;45.16;98654.41;4996412;28;20515;-92
2023/11/02 15:31:43;;;;;;;;;;;;;;;;;;;;;
2023/11/02 15:34:20;;;;;;;6.90;3.38;;;;;;;16.55;44.76;98660.78;5012173;28;20081;-91
2023/11/02 15:37:15;;;;;;;;;;;;;;;;;;;;;
2023/11/02 15:40:00;;;;;;;5.10;2.67;;;;;;;16.39;45.28;98650.75;5021049;28;20436;-93
2023/11/02 15:46:11;;;;;;;;;;;;;;;;;;;;;
2023/11/02 15:48:54;;;;;;;9.52;5.78;;;;;;;16.64;45.24;98682.47;4993636;28;20113;-93
2023/11/02 15:51:54;;;;;;;9.25;3.00;;;;;;;16.36;44.63;98653.00;4968734;28;20525;-93
2023/11/02 15:54:29;;;;;;;;;;;;;;;;;;;;;
2023/11/02 15:56:57;;;;;;;6.07;3.00;;;;;;;16.43;45.35;98673.44;4961209;28;20121;-92
2023/11/02 15:59:43;;;;;;;7.10;2.65;;;;;;;16.19;45.10;98658.50;4966275;28;20063;-93
2023/11/02 16:02:28;;;;;;;7.10;3.70;;;;;;;16.45;45.28;98690.22;4941860;29;20035;-92
2023/11/02 16:05:17;;;;;;;5.32;3.17;;;;;;;16.32;44.98;98671.06;4908651;29;20044;-93
2023/11/02 16:07:44;;;;;;;9.75;3.13;;;;;;;16.40;44.90;98676.81;4890554;29;20034;-92
2023/11/02 16:10:13;;;;;;;4.05;2.42;;;;;;;16.34;44.87;98668.03;4890254;29;20135;-90
2023/11/02 16:12:50;;;;;;;;;;;;;;;;;;;;;
2023/11/02 16:15:44;;;;;;;6.90;2.80;;;;;;;16.42;44.92;98705.25;4880425;29;20091;-94
2023/11/02 16:18:19;;;;;;;5.57;3.28;;;;;;;16.31;45.46;98679.53;4893640;29;20043;-94
2023/11/02 16:21:18;;;;;;;6.82;3.15;;;;;;;16.29;46.03;98693.47;4875134;29;20040;-94
2023/11/02 16:24:16;;;;;;;5.07;2.88;;;;;;;16.27;45.84;98684.84;4889659;29;20033;-94
2023/11/02 16:27:42;;;;;;;;;;;;;;;;;;;;;
2023/11/02 16:30:23;;;;;;;5.70;2.70;;;;;;;16.25;45.31;98689.81;4882311;29;20045;-92
2023/11/02 16:33:00;;;;;;;5.70;2.25;;;;;;;16.26;45.18;98683.22;4893437;29;20051;-94
2023/11/02 16:35:40;;;;;;;;;;;;;;;;;;;;;
2023/11/02 16:38:17;;;;;;;;;;;;;;;;;;;;;
2023/11/02 16:41:04;;;;;;;8.73;3.38;;;;;;;16.17;45.67;98663.47;4962833;28;20592;-93
2023/11/02 16:43:47;;;;;;;;;;;;;;;;;;;;;
2023/11/02 16:46:16;;;;;;;5.65;3.22;;;;;;;16.13;45.65;98663.28;4949983;28;20477;-95
2023/11/02 16:55:41;;;;;;;;;;;;;;;;;;;;;
2023/11/02 16:58:21;;;;;;;;;;;;;;;;;;;;;
2023/11/02 17:00:56;;;;;;;8.00;3.72;;;;;;;15.92;45.52;98675.97;4941483;29;20111;-95
2023/11/02 17:03:21;;;;;;;6.10;3.13;;;;;;;15.96;45.72;98675.00;4912247;29;20130;-95
2023/11/02 17:05:50;;;;;;;5.53;3.20;;;;;;;15.96;45.58;98677.69;4911357;29;20118;-95
2023/11/02 17:08:20;;;;;;;7.13;3.17;;;;;;;16.02;45.43;98693.81;4935473;28;20564;-94
2023/11/02 17:10:57;;;;;;;6.53;2.88;;;;;;;16.12;45.85;98715.22;4969143;28;20044;-94
2023/11/02 17:13:23;;;;;;;10.02;3.08;;;;;;;16.02;45.96;98697.34;4970962;28;20037;-92
2023/11/02 17:15:54;;;;;;;9.15;4.03;;;;;;;15.99;46.09;98691.75;4982927;28;20034;-95
2023/11/02 17:18:22;;;;;;;5.35;2.75;;;;;;;15.89;46.12;98684.72;4967782;28;20487;-93
2023/11/02 17:20:50;;;;;;;5.28;3.53;;;;;;;15.95;46.23;98705.97;4966770;28;20030;-93
2023/11/02 17:23:31;;;;;;;7.55;3.78;;;;;;;15.97;46.77;98719.22;4971675;28;20129;-96
2023/11/02 17:26:00;;;;;;;9.82;3.90;;;;;;;15.67;47.09;98700.03;4971284;28;20096;-92
2023/11/02 17:28:41;;;;;;;;;;;;;;;;;;;;;
2023/11/02 17:36:55;;;;;;;11.60;4.68;;;;;;;15.73;48.75;98725.94;5876607;23;20050;-95
2023/11/02 17:40:01;;;;;;;;;;;;;;;;;;;;;
2023/11/02 17:42:32;;;;;;;11.85;5.55;;;;;;;15.55;49.46;98730.50;4971175;28;20065;-94
2023/11/02 17:45:26;;;;;;;;;;;;;;;;;;;;;